sensor_id;sensor_type;location;lat;lon;timestamp;temperature;humidity
29093;DHT22;16167;48.768;14.984;2023-07-31T00:01:25;15.80;6.20
29093;DHT22;16167;48.768;14.984;2023-07-31T00:03:53;15.70;6.30
29093;DHT22;16167;48.768;14.984;2023-07-31T00:06:22;15.60;8.40
29093;DHT22;16167;48.768;14.984;2023-07-31T00:08:50;15.60;8.50
29093;DHT22;16167;48.768;14.984;2023-07-31T00:11:18;15.50;13.20
29093;DHT22;16167;48.768;14.984;2023-07-31T00:13:46;15.40;15.70
29093;DHT22;16167;48.768;14.984;2023-07-31T00:16:15;15.40;18.50
29093;DHT22;16167;48.768;14.984;2023-07-31T00:18:43;15.40;16.70
29093;DHT22;16167;48.768;14.984;2023-07-31T00:21:11;15.30;19.40
29093;DHT22;16167;48.768;14.984;2023-07-31T00:23:39;15.30;14.90
29093;DHT22;16167;48.768;14.984;2023-07-31T00:26:07;15.30;18.10
29093;DHT22;16167;48.768;14.984;2023-07-31T00:28:34;15.30;18.50
29093;DHT22;16167;48.768;14.984;2023-07-31T00:31:03;15.20;16.70
29093;DHT22;16167;48.768;14.984;2023-07-31T00:33:34;15.20;16.60
29093;DHT22;16167;48.768;14.984;2023-07-31T00:36:02;15.20;20.00
29093;DHT22;16167;48.768;14.984;2023-07-31T00:38:30;15.10;21.50
29093;DHT22;16167;48.768;14.984;2023-07-31T00:40:58;15.10;22.30
29093;DHT22;16167;48.768;14.984;2023-07-31T00:43:26;15.10;24.20
29093;DHT22;16167;48.768;14.984;2023-07-31T00:45:54;15.00;25.50
29093;DHT22;16167;48.768;14.984;2023-07-31T00:48:22;15.00;26.80
29093;DHT22;16167;48.768;14.984;2023-07-31T00:50:52;15.00;22.50
29093;DHT22;16167;48.768;14.984;2023-07-31T00:53:20;14.90;22.70
29093;DHT22;16167;48.768;14.984;2023-07-31T00:55:47;14.90;23.60
29093;DHT22;16167;48.768;14.984;2023-07-31T00:58:15;14.90;29.00
29093;DHT22;16167;48.768;14.984;2023-07-31T01:00:43;14.90;27.80
29093;DHT22;16167;48.768;14.984;2023-07-31T01:03:13;14.80;31.20
29093;DHT22;16167;48.768;14.984;2023-07-31T01:05:43;14.80;29.10
29093;DHT22;16167;48.768;14.984;2023-07-31T01:08:18;14.80;29.60
29093;DHT22;16167;48.768;14.984;2023-07-31T01:10:49;14.70;28.20
29093;DHT22;16167;48.768;14.984;2023-07-31T01:13:18;14.70;28.60
29093;DHT22;16167;48.768;14.984;2023-07-31T01:15:47;14.70;28.30
29093;DHT22;16167;48.768;14.984;2023-07-31T01:18:15;14.70;30.20
29093;DHT22;16167;48.768;14.984;2023-07-31T01:20:43;14.70;28.00
29093;DHT22;16167;48.768;14.984;2023-07-31T01:23:26;14.60;30.80
29093;DHT22;16167;48.768;14.984;2023-07-31T01:26:02;14.60;29.00
29093;DHT22;16167;48.768;14.984;2023-07-31T01:28:33;14.60;26.80
29093;DHT22;16167;48.768;14.984;2023-07-31T01:31:05;14.60;32.40
29093;DHT22;16167;48.768;14.984;2023-07-31T01:33:35;14.50;33.90
29093;DHT22;16167;48.768;14.984;2023-07-31T01:36:04;14.50;36.10
29093;DHT22;16167;48.768;14.984;2023-07-31T01:38:32;14.40;35.30
29093;DHT22;16167;48.768;14.984;2023-07-31T01:41:01;14.40;34.30
29093;DHT22;16167;48.768;14.984;2023-07-31T01:43:29;14.30;35.00
29093;DHT22;16167;48.768;14.984;2023-07-31T01:45:57;14.30;39.40
29093;DHT22;16167;48.768;14.984;2023-07-31T01:48:25;14.20;39.70
29093;DHT22;16167;48.768;14.984;2023-07-31T01:50:53;14.20;38.60
29093;DHT22;16167;48.768;14.984;2023-07-31T01:53:21;14.20;39.00
29093;DHT22;16167;48.768;14.984;2023-07-31T01:55:49;14.10;38.00
29093;DHT22;16167;48.768;14.984;2023-07-31T01:58:18;14.20;38.40
29093;DHT22;16167;48.768;14.984;2023-07-31T02:00:46;14.10;36.00
29093;DHT22;16167;48.768;14.984;2023-07-31T02:03:14;14.10;40.80
29093;DHT22;16167;48.768;14.984;2023-07-31T02:05:43;14.10;40.10
29093;DHT22;16167;48.768;14.984;2023-07-31T02:08:11;14.10;34.00
29093;DHT22;16167;48.768;14.984;2023-07-31T02:10:39;14.00;39.50
29093;DHT22;16167;48.768;14.984;2023-07-31T02:13:07;14.00;32.80
29093;DHT22;16167;48.768;14.984;2023-07-31T02:15:37;14.00;33.90
29093;DHT22;16167;48.768;14.984;2023-07-31T02:18:05;14.00;29.30
29093;DHT22;16167;48.768;14.984;2023-07-31T02:20:33;13.90;27.40
29093;DHT22;16167;48.768;14.984;2023-07-31T02:23:01;14.00;25.80
29093;DHT22;16167;48.768;14.984;2023-07-31T02:25:29;13.90;21.50
29093;DHT22;16167;48.768;14.984;2023-07-31T02:27:57;13.90;17.50
29093;DHT22;16167;48.768;14.984;2023-07-31T02:30:25;13.90;18.60
29093;DHT22;16167;48.768;14.984;2023-07-31T02:32:54;13.90;19.50
29093;DHT22;16167;48.768;14.984;2023-07-31T02:35:22;13.90;12.60
29093;DHT22;16167;48.768;14.984;2023-07-31T02:37:51;13.90;12.00
29093;DHT22;16167;48.768;14.984;2023-07-31T02:40:19;13.90;10.40
29093;DHT22;16167;48.768;14.984;2023-07-31T02:42:47;13.90;7.90
29093;DHT22;16167;48.768;14.984;2023-07-31T02:45:14;13.90;10.50
29093;DHT22;16167;48.768;14.984;2023-07-31T02:47:42;13.90;4.20
29093;DHT22;16167;48.768;14.984;2023-07-31T02:50:12;14.00;1.00
29093;DHT22;16167;48.768;14.984;2023-07-31T02:52:39;14.00;3.00
29093;DHT22;16167;48.768;14.984;2023-07-31T02:55:07;14.00;2.40
29093;DHT22;16167;48.768;14.984;2023-07-31T02:57:35;14.00;1.00
29093;DHT22;16167;48.768;14.984;2023-07-31T03:00:04;14.00;1.00
29093;DHT22;16167;48.768;14.984;2023-07-31T03:02:32;14.10;1.00
29093;DHT22;16167;48.768;14.984;2023-07-31T03:05:01;14.10;1.00
29093;DHT22;16167;48.768;14.984;2023-07-31T03:07:30;14.10;1.00
29093;DHT22;16167;48.768;14.984;2023-07-31T03:09:59;14.10;1.00
29093;DHT22;16167;48.768;14.984;2023-07-31T03:12:27;14.10;1.00
29093;DHT22;16167;48.768;14.984;2023-07-31T03:14:55;14.20;1.00
29093;DHT22;16167;48.768;14.984;2023-07-31T03:17:23;14.20;1.00
29093;DHT22;16167;48.768;14.984;2023-07-31T03:19:51;14.20;1.00
29093;DHT22;16167;48.768;14.984;2023-07-31T03:22:18;14.20;1.00
29093;DHT22;16167;48.768;14.984;2023-07-31T03:24:48;14.10;1.00
29093;DHT22;16167;48.768;14.984;2023-07-31T03:27:16;14.10;1.00
29093;DHT22;16167;48.768;14.984;2023-07-31T03:29:44;14.10;1.00
29093;DHT22;16167;48.768;14.984;2023-07-31T03:32:11;14.10;1.00
29093;DHT22;16167;48.768;14.984;2023-07-31T03:34:39;14.10;1.00
29093;DHT22;16167;48.768;14.984;2023-07-31T03:37:07;14.10;1.00
29093;DHT22;16167;48.768;14.984;2023-07-31T03:39:36;14.10;1.00
29093;DHT22;16167;48.768;14.984;2023-07-31T03:42:06;14.10;1.00
29093;DHT22;16167;48.768;14.984;2023-07-31T03:44:34;14.10;1.00
29093;DHT22;16167;48.768;14.984;2023-07-31T03:47:01;14.10;1.00
29093;DHT22;16167;48.768;14.984;2023-07-31T03:49:29;14.20;1.00
29093;DHT22;16167;48.768;14.984;2023-07-31T03:51:57;14.20;1.00
29093;DHT22;16167;48.768;14.984;2023-07-31T03:54:25;14.20;1.00
29093;DHT22;16167;48.768;14.984;2023-07-31T03:56:53;14.20;1.00
29093;DHT22;16167;48.768;14.984;2023-07-31T03:59:23;14.20;1.00
29093;DHT22;16167;48.768;14.984;2023-07-31T04:01:51;14.20;1.00
29093;DHT22;16167;48.768;14.984;2023-07-31T04:04:19;14.10;1.00
29093;DHT22;16167;48.768;14.984;2023-07-31T04:06:46;14.10;1.00
29093;DHT22;16167;48.768;14.984;2023-07-31T04:09:14;14.10;1.00
29093;DHT22;16167;48.768;14.984;2023-07-31T04:11:42;14.10;1.00
29093;DHT22;16167;48.768;14.984;2023-07-31T04:14:10;14.10;1.00
29093;DHT22;16167;48.768;14.984;2023-07-31T04:16:40;14.00;1.00
29093;DHT22;16167;48.768;14.984;2023-07-31T04:19:08;14.00;1.00
29093;DHT22;16167;48.768;14.984;2023-07-31T04:21:37;14.00;1.00
29093;DHT22;16167;48.768;14.984;2023-07-31T04:24:05;13.90;1.00
29093;DHT22;16167;48.768;14.984;2023-07-31T04:26:33;13.90;1.00
29093;DHT22;16167;48.768;14.984;2023-07-31T04:29:01;13.90;1.00
29093;DHT22;16167;48.768;14.984;2023-07-31T04:31:28;13.80;1.00
29093;DHT22;16167;48.768;14.984;2023-07-31T04:33:58;13.80;1.00
29093;DHT22;16167;48.768;14.984;2023-07-31T04:36:26;13.80;1.00
29093;DHT22;16167;48.768;14.984;2023-07-31T04:38:54;13.80;1.00
29093;DHT22;16167;48.768;14.984;2023-07-31T04:41:22;13.80;1.00
29093;DHT22;16167;48.768;14.984;2023-07-31T04:43:50;13.80;1.00
29093;DHT22;16167;48.768;14.984;2023-07-31T04:46:18;13.90;1.00
29093;DHT22;16167;48.768;14.984;2023-07-31T04:48:46;13.90;1.00
29093;DHT22;16167;48.768;14.984;2023-07-31T04:51:15;13.90;1.00
29093;DHT22;16167;48.768;14.984;2023-07-31T04:53:43;14.00;1.00
29093;DHT22;16167;48.768;14.984;2023-07-31T04:56:11;14.00;1.00
29093;DHT22;16167;48.768;14.984;2023-07-31T04:58:40;14.00;1.00
29093;DHT22;16167;48.768;14.984;2023-07-31T05:01:08;14.10;1.00
29093;DHT22;16167;48.768;14.984;2023-07-31T05:03:36;14.10;1.00
29093;DHT22;16167;48.768;14.984;2023-07-31T05:06:04;14.10;1.00
29093;DHT22;16167;48.768;14.984;2023-07-31T05:08:33;14.10;1.00
29093;DHT22;16167;48.768;14.984;2023-07-31T05:11:01;14.20;1.00
29093;DHT22;16167;48.768;14.984;2023-07-31T05:13:29;14.10;1.00
29093;DHT22;16167;48.768;14.984;2023-07-31T05:15:57;14.20;1.00
29093;DHT22;16167;48.768;14.984;2023-07-31T05:18:29;14.10;1.00
29093;DHT22;16167;48.768;14.984;2023-07-31T05:20:57;14.10;1.00
29093;DHT22;16167;48.768;14.984;2023-07-31T05:23:24;14.20;1.00
29093;DHT22;16167;48.768;14.984;2023-07-31T05:25:54;14.30;1.00
29093;DHT22;16167;48.768;14.984;2023-07-31T05:28:22;14.30;1.00
29093;DHT22;16167;48.768;14.984;2023-07-31T05:30:50;14.40;1.00
29093;DHT22;16167;48.768;14.984;2023-07-31T05:33:18;14.50;1.00
29093;DHT22;16167;48.768;14.984;2023-07-31T05:35:46;14.60;1.00
29093;DHT22;16167;48.768;14.984;2023-07-31T05:38:14;14.70;1.00
29093;DHT22;16167;48.768;14.984;2023-07-31T05:40:42;14.70;1.00
29093;DHT22;16167;48.768;14.984;2023-07-31T05:43:11;14.90;1.00
29093;DHT22;16167;48.768;14.984;2023-07-31T05:45:39;14.90;1.00
29093;DHT22;16167;48.768;14.984;2023-07-31T05:48:07;15.00;1.00
29093;DHT22;16167;48.768;14.984;2023-07-31T05:50:35;15.00;1.00
29093;DHT22;16167;48.768;14.984;2023-07-31T05:53:05;15.10;1.00
29093;DHT22;16167;48.768;14.984;2023-07-31T05:55:34;15.10;1.00
29093;DHT22;16167;48.768;14.984;2023-07-31T05:58:02;15.10;1.00
29093;DHT22;16167;48.768;14.984;2023-07-31T06:00:31;15.20;1.00
29093;DHT22;16167;48.768;14.984;2023-07-31T06:02:59;15.20;1.00
29093;DHT22;16167;48.768;14.984;2023-07-31T06:05:27;15.20;1.00
29093;DHT22;16167;48.768;14.984;2023-07-31T06:07:56;15.30;1.00
29093;DHT22;16167;48.768;14.984;2023-07-31T06:10:24;15.30;1.00
29093;DHT22;16167;48.768;14.984;2023-07-31T06:12:52;15.60;1.00
29093;DHT22;16167;48.768;14.984;2023-07-31T06:15:20;15.80;1.00
29093;DHT22;16167;48.768;14.984;2023-07-31T06:17:50;15.90;1.00
29093;DHT22;16167;48.768;14.984;2023-07-31T06:20:18;16.00;1.00
29093;DHT22;16167;48.768;14.984;2023-07-31T06:22:46;16.20;1.00
29093;DHT22;16167;48.768;14.984;2023-07-31T06:25:14;16.30;1.00
29093;DHT22;16167;48.768;14.984;2023-07-31T06:27:42;16.60;1.00
29093;DHT22;16167;48.768;14.984;2023-07-31T06:30:10;16.70;1.00
29093;DHT22;16167;48.768;14.984;2023-07-31T06:32:38;16.80;1.00
29093;DHT22;16167;48.768;14.984;2023-07-31T06:35:08;16.90;1.00
29093;DHT22;16167;48.768;14.984;2023-07-31T06:37:36;16.90;1.00
29093;DHT22;16167;48.768;14.984;2023-07-31T06:40:07;17.00;1.00
29093;DHT22;16167;48.768;14.984;2023-07-31T06:42:35;17.30;1.00
29093;DHT22;16167;48.768;14.984;2023-07-31T06:45:03;17.70;1.00
29093;DHT22;16167;48.768;14.984;2023-07-31T06:47:32;18.20;1.00
29093;DHT22;16167;48.768;14.984;2023-07-31T06:50:00;18.30;1.00
29093;DHT22;16167;48.768;14.984;2023-07-31T06:52:29;18.40;1.00
29093;DHT22;16167;48.768;14.984;2023-07-31T06:55:01;18.50;1.00
29093;DHT22;16167;48.768;14.984;2023-07-31T06:57:29;18.50;1.00
29093;DHT22;16167;48.768;14.984;2023-07-31T06:59:57;18.50;1.00
29093;DHT22;16167;48.768;14.984;2023-07-31T07:02:25;18.60;1.00
29093;DHT22;16167;48.768;14.984;2023-07-31T07:04:53;18.60;1.00
29093;DHT22;16167;48.768;14.984;2023-07-31T07:07:21;18.70;1.00
29093;DHT22;16167;48.768;14.984;2023-07-31T07:09:50;18.80;1.00
29093;DHT22;16167;48.768;14.984;2023-07-31T07:12:18;18.90;1.00
29093;DHT22;16167;48.768;14.984;2023-07-31T07:14:46;18.90;1.00
29093;DHT22;16167;48.768;14.984;2023-07-31T07:17:14;19.00;1.00
29093;DHT22;16167;48.768;14.984;2023-07-31T07:19:42;19.00;1.00
29093;DHT22;16167;48.768;14.984;2023-07-31T07:22:10;19.00;1.00
29093;DHT22;16167;48.768;14.984;2023-07-31T07:24:38;19.00;1.00
29093;DHT22;16167;48.768;14.984;2023-07-31T07:27:07;19.00;1.00
29093;DHT22;16167;48.768;14.984;2023-07-31T07:29:35;19.00;1.00
29093;DHT22;16167;48.768;14.984;2023-07-31T07:32:03;19.10;1.00
29093;DHT22;16167;48.768;14.984;2023-07-31T07:34:31;19.20;1.00
29093;DHT22;16167;48.768;14.984;2023-07-31T07:36:59;19.20;1.00
29093;DHT22;16167;48.768;14.984;2023-07-31T07:39:27;19.40;1.00
29093;DHT22;16167;48.768;14.984;2023-07-31T07:41:55;19.60;1.00
29093;DHT22;16167;48.768;14.984;2023-07-31T07:44:24;19.70;1.00
29093;DHT22;16167;48.768;14.984;2023-07-31T07:46:53;19.70;1.00
29093;DHT22;16167;48.768;14.984;2023-07-31T07:49:21;19.70;1.00
29093;DHT22;16167;48.768;14.984;2023-07-31T07:51:49;19.70;1.00
29093;DHT22;16167;48.768;14.984;2023-07-31T07:54:17;19.80;1.00
29093;DHT22;16167;48.768;14.984;2023-07-31T07:56:46;19.90;1.00
29093;DHT22;16167;48.768;14.984;2023-07-31T07:59:15;20.00;1.00
29093;DHT22;16167;48.768;14.984;2023-07-31T08:01:44;20.20;1.00
29093;DHT22;16167;48.768;14.984;2023-07-31T08:04:12;20.30;1.00
29093;DHT22;16167;48.768;14.984;2023-07-31T08:06:40;20.40;1.00
29093;DHT22;16167;48.768;14.984;2023-07-31T08:09:08;20.50;1.00
29093;DHT22;16167;48.768;14.984;2023-07-31T08:11:36;20.50;1.00
29093;DHT22;16167;48.768;14.984;2023-07-31T08:14:04;20.60;1.00
29093;DHT22;16167;48.768;14.984;2023-07-31T08:16:32;20.70;1.00
29093;DHT22;16167;48.768;14.984;2023-07-31T08:19:02;20.90;1.00
29093;DHT22;16167;48.768;14.984;2023-07-31T08:21:30;21.20;1.00
29093;DHT22;16167;48.768;14.984;2023-07-31T08:23:59;21.60;1.00
29093;DHT22;16167;48.768;14.984;2023-07-31T08:26:26;21.90;1.00
29093;DHT22;16167;48.768;14.984;2023-07-31T08:28:54;22.00;1.00
29093;DHT22;16167;48.768;14.984;2023-07-31T08:31:22;22.00;1.00
29093;DHT22;16167;48.768;14.984;2023-07-31T08:33:50;22.00;1.00
29093;DHT22;16167;48.768;14.984;2023-07-31T08:36:20;22.30;1.00
29093;DHT22;16167;48.768;14.984;2023-07-31T08:38:48;22.50;1.00
29093;DHT22;16167;48.768;14.984;2023-07-31T08:41:16;22.60;1.00
29093;DHT22;16167;48.768;14.984;2023-07-31T08:43:45;22.70;1.00
29093;DHT22;16167;48.768;14.984;2023-07-31T08:46:13;22.70;1.00
29093;DHT22;16167;48.768;14.984;2023-07-31T08:48:42;22.90;1.00
29093;DHT22;16167;48.768;14.984;2023-07-31T08:51:10;23.00;1.00
29093;DHT22;16167;48.768;14.984;2023-07-31T08:53:40;23.00;1.00
29093;DHT22;16167;48.768;14.984;2023-07-31T08:56:08;23.00;1.00
29093;DHT22;16167;48.768;14.984;2023-07-31T08:58:36;22.90;1.00
29093;DHT22;16167;48.768;14.984;2023-07-31T09:01:05;22.90;1.00
29093;DHT22;16167;48.768;14.984;2023-07-31T09:03:34;22.90;1.00
29093;DHT22;16167;48.768;14.984;2023-07-31T09:06:03;23.10;1.00
29093;DHT22;16167;48.768;14.984;2023-07-31T09:08:33;23.40;1.00
29093;DHT22;16167;48.768;14.984;2023-07-31T09:11:02;23.60;1.00
29093;DHT22;16167;48.768;14.984;2023-07-31T09:13:31;23.70;1.00
29093;DHT22;16167;48.768;14.984;2023-07-31T09:15:59;23.70;1.00
29093;DHT22;16167;48.768;14.984;2023-07-31T09:18:27;23.60;1.00
29093;DHT22;16167;48.768;14.984;2023-07-31T09:21:02;23.50;1.00
29093;DHT22;16167;48.768;14.984;2023-07-31T09:23:40;23.50;1.00
29093;DHT22;16167;48.768;14.984;2023-07-31T09:26:09;23.50;1.00
29093;DHT22;16167;48.768;14.984;2023-07-31T09:28:37;23.50;1.00
29093;DHT22;16167;48.768;14.984;2023-07-31T09:31:05;23.80;1.00
29093;DHT22;16167;48.768;14.984;2023-07-31T09:33:33;24.20;1.00
29093;DHT22;16167;48.768;14.984;2023-07-31T09:36:01;24.60;1.00
29093;DHT22;16167;48.768;14.984;2023-07-31T09:38:32;25.00;1.00
29093;DHT22;16167;48.768;14.984;2023-07-31T09:41:00;25.30;1.00
29093;DHT22;16167;48.768;14.984;2023-07-31T09:43:29;25.60;1.00
29093;DHT22;16167;48.768;14.984;2023-07-31T09:45:57;25.90;1.00
29093;DHT22;16167;48.768;14.984;2023-07-31T09:48:25;26.30;1.00
29093;DHT22;16167;48.768;14.984;2023-07-31T09:50:56;26.50;1.00
29093;DHT22;16167;48.768;14.984;2023-07-31T09:53:31;26.90;1.00
29093;DHT22;16167;48.768;14.984;2023-07-31T09:55:59;27.00;1.00
29093;DHT22;16167;48.768;14.984;2023-07-31T09:58:30;27.20;1.00
29093;DHT22;16167;48.768;14.984;2023-07-31T10:01:00;27.30;1.00
29093;DHT22;16167;48.768;14.984;2023-07-31T10:03:29;27.50;1.00
29093;DHT22;16167;48.768;14.984;2023-07-31T10:05:58;27.80;1.00
29093;DHT22;16167;48.768;14.984;2023-07-31T10:08:28;27.80;1.00
29093;DHT22;16167;48.768;14.984;2023-07-31T10:10:58;28.10;1.00
29093;DHT22;16167;48.768;14.984;2023-07-31T10:13:26;28.40;1.00
29093;DHT22;16167;48.768;14.984;2023-07-31T10:15:58;28.40;1.00
29093;DHT22;16167;48.768;14.984;2023-07-31T10:18:26;28.80;1.00
29093;DHT22;16167;48.768;14.984;2023-07-31T10:20:55;28.90;1.00
29093;DHT22;16167;48.768;14.984;2023-07-31T10:23:23;28.90;1.00
29093;DHT22;16167;48.768;14.984;2023-07-31T10:25:52;28.90;1.00
29093;DHT22;16167;48.768;14.984;2023-07-31T10:28:20;28.70;1.00
29093;DHT22;16167;48.768;14.984;2023-07-31T10:30:49;28.70;1.00
29093;DHT22;16167;48.768;14.984;2023-07-31T10:33:18;28.60;1.00
29093;DHT22;16167;48.768;14.984;2023-07-31T10:35:47;28.60;1.00
29093;DHT22;16167;48.768;14.984;2023-07-31T10:38:15;28.70;1.00
29093;DHT22;16167;48.768;14.984;2023-07-31T10:40:43;28.90;1.00
29093;DHT22;16167;48.768;14.984;2023-07-31T10:43:23;29.10;1.00
29093;DHT22;16167;48.768;14.984;2023-07-31T10:45:51;29.30;1.00
29093;DHT22;16167;48.768;14.984;2023-07-31T10:48:21;29.60;1.00
29093;DHT22;16167;48.768;14.984;2023-07-31T10:50:50;30.00;1.00
29093;DHT22;16167;48.768;14.984;2023-07-31T10:53:22;30.20;1.00
29093;DHT22;16167;48.768;14.984;2023-07-31T10:55:50;30.10;1.00
29093;DHT22;16167;48.768;14.984;2023-07-31T10:58:19;30.30;1.00
29093;DHT22;16167;48.768;14.984;2023-07-31T11:00:47;30.60;1.00
29093;DHT22;16167;48.768;14.984;2023-07-31T11:03:16;30.70;1.00
29093;DHT22;16167;48.768;14.984;2023-07-31T11:05:50;31.00;1.00
29093;DHT22;16167;48.768;14.984;2023-07-31T11:08:20;31.20;1.00
29093;DHT22;16167;48.768;14.984;2023-07-31T11:10:49;31.40;1.00
29093;DHT22;16167;48.768;14.984;2023-07-31T11:13:18;31.70;1.00
29093;DHT22;16167;48.768;14.984;2023-07-31T11:15:45;31.70;1.00
29093;DHT22;16167;48.768;14.984;2023-07-31T11:18:13;31.70;1.00
29093;DHT22;16167;48.768;14.984;2023-07-31T11:20:43;31.80;1.00
29093;DHT22;16167;48.768;14.984;2023-07-31T11:23:15;32.00;1.00
29093;DHT22;16167;48.768;14.984;2023-07-31T11:25:43;32.10;1.00
29093;DHT22;16167;48.768;14.984;2023-07-31T11:28:12;32.30;1.00
29093;DHT22;16167;48.768;14.984;2023-07-31T11:30:41;32.20;1.00
29093;DHT22;16167;48.768;14.984;2023-07-31T11:33:09;32.00;1.00
29093;DHT22;16167;48.768;14.984;2023-07-31T11:35:41;32.10;1.00
29093;DHT22;16167;48.768;14.984;2023-07-31T11:38:10;32.00;1.00
29093;DHT22;16167;48.768;14.984;2023-07-31T11:40:43;31.60;1.00
29093;DHT22;16167;48.768;14.984;2023-07-31T11:43:11;31.80;1.00
29093;DHT22;16167;48.768;14.984;2023-07-31T11:45:44;32.00;1.00
29093;DHT22;16167;48.768;14.984;2023-07-31T11:48:17;32.20;1.00
29093;DHT22;16167;48.768;14.984;2023-07-31T11:50:46;32.30;1.00
29093;DHT22;16167;48.768;14.984;2023-07-31T11:53:16;32.10;1.00
29093;DHT22;16167;48.768;14.984;2023-07-31T11:55:46;31.40;1.00
29093;DHT22;16167;48.768;14.984;2023-07-31T11:58:14;31.00;1.00
29093;DHT22;16167;48.768;14.984;2023-07-31T12:00:43;30.50;1.00
29093;DHT22;16167;48.768;14.984;2023-07-31T12:03:11;30.40;1.00
29093;DHT22;16167;48.768;14.984;2023-07-31T12:05:39;30.30;1.00
29093;DHT22;16167;48.768;14.984;2023-07-31T12:08:10;30.40;1.00
29093;DHT22;16167;48.768;14.984;2023-07-31T12:10:39;30.30;1.00
29093;DHT22;16167;48.768;14.984;2023-07-31T12:13:09;30.60;1.00
29093;DHT22;16167;48.768;14.984;2023-07-31T12:15:40;31.00;1.00
29093;DHT22;16167;48.768;14.984;2023-07-31T12:18:09;30.90;1.00
29093;DHT22;16167;48.768;14.984;2023-07-31T12:20:41;30.50;1.00
29093;DHT22;16167;48.768;14.984;2023-07-31T12:23:13;30.10;1.00
29093;DHT22;16167;48.768;14.984;2023-07-31T12:25:41;30.00;1.00
29093;DHT22;16167;48.768;14.984;2023-07-31T12:28:11;30.30;1.00
29093;DHT22;16167;48.768;14.984;2023-07-31T12:30:39;31.00;1.00
29093;DHT22;16167;48.768;14.984;2023-07-31T12:33:12;31.60;1.00
29093;DHT22;16167;48.768;14.984;2023-07-31T12:35:41;31.40;1.00
29093;DHT22;16167;48.768;14.984;2023-07-31T12:38:09;31.30;1.00
29093;DHT22;16167;48.768;14.984;2023-07-31T12:40:37;31.00;1.00
29093;DHT22;16167;48.768;14.984;2023-07-31T12:43:06;30.50;1.00
29093;DHT22;16167;48.768;14.984;2023-07-31T12:45:35;30.10;1.00
29093;DHT22;16167;48.768;14.984;2023-07-31T12:48:03;29.80;1.00
29093;DHT22;16167;48.768;14.984;2023-07-31T12:50:31;29.50;1.00
29093;DHT22;16167;48.768;14.984;2023-07-31T12:52:59;29.70;1.00
29093;DHT22;16167;48.768;14.984;2023-07-31T12:55:27;30.30;1.00
29093;DHT22;16167;48.768;14.984;2023-07-31T12:57:55;30.90;1.00
29093;DHT22;16167;48.768;14.984;2023-07-31T13:00:23;31.40;1.00
29093;DHT22;16167;48.768;14.984;2023-07-31T13:02:54;31.40;1.00
29093;DHT22;16167;48.768;14.984;2023-07-31T13:05:22;31.00;1.00
29093;DHT22;16167;48.768;14.984;2023-07-31T13:07:50;30.60;1.00
29093;DHT22;16167;48.768;14.984;2023-07-31T13:10:19;30.40;1.00
29093;DHT22;16167;48.768;14.984;2023-07-31T13:12:47;30.00;1.00
29093;DHT22;16167;48.768;14.984;2023-07-31T13:15:15;29.80;1.00
29093;DHT22;16167;48.768;14.984;2023-07-31T13:17:43;30.00;1.00
29093;DHT22;16167;48.768;14.984;2023-07-31T13:20:12;30.60;1.00
29093;DHT22;16167;48.768;14.984;2023-07-31T13:22:40;31.30;1.00
29093;DHT22;16167;48.768;14.984;2023-07-31T13:25:12;32.10;1.00
29093;DHT22;16167;48.768;14.984;2023-07-31T13:27:40;32.50;1.00
29093;DHT22;16167;48.768;14.984;2023-07-31T13:30:08;32.90;1.00
29093;DHT22;16167;48.768;14.984;2023-07-31T13:32:36;33.10;1.00
29093;DHT22;16167;48.768;14.984;2023-07-31T13:35:05;33.30;1.00
29093;DHT22;16167;48.768;14.984;2023-07-31T13:37:35;33.50;1.00
29093;DHT22;16167;48.768;14.984;2023-07-31T13:40:03;33.60;1.00
29093;DHT22;16167;48.768;14.984;2023-07-31T13:42:32;33.80;1.00
29093;DHT22;16167;48.768;14.984;2023-07-31T13:45:00;33.90;1.00
29093;DHT22;16167;48.768;14.984;2023-07-31T13:47:31;34.10;1.00
29093;DHT22;16167;48.768;14.984;2023-07-31T13:50:01;34.10;1.00
29093;DHT22;16167;48.768;14.984;2023-07-31T13:52:29;34.20;1.00
29093;DHT22;16167;48.768;14.984;2023-07-31T13:54:58;34.30;1.00
29093;DHT22;16167;48.768;14.984;2023-07-31T13:57:26;34.40;1.00
29093;DHT22;16167;48.768;14.984;2023-07-31T13:59:55;34.40;1.00
29093;DHT22;16167;48.768;14.984;2023-07-31T14:02:23;34.50;1.00
29093;DHT22;16167;48.768;14.984;2023-07-31T14:04:51;34.10;1.00
29093;DHT22;16167;48.768;14.984;2023-07-31T14:07:18;33.80;1.00
29093;DHT22;16167;48.768;14.984;2023-07-31T14:09:46;33.90;1.00
29093;DHT22;16167;48.768;14.984;2023-07-31T14:12:16;34.00;1.00
29093;DHT22;16167;48.768;14.984;2023-07-31T14:15:04;33.50;1.00
29093;DHT22;16167;48.768;14.984;2023-07-31T14:17:32;33.70;1.00
29093;DHT22;16167;48.768;14.984;2023-07-31T14:20:01;33.50;1.00
29093;DHT22;16167;48.768;14.984;2023-07-31T14:22:29;33.80;1.00
29093;DHT22;16167;48.768;14.984;2023-07-31T14:24:58;34.00;1.00
29093;DHT22;16167;48.768;14.984;2023-07-31T14:27:27;34.00;1.00
29093;DHT22;16167;48.768;14.984;2023-07-31T14:29:55;33.90;1.00
29093;DHT22;16167;48.768;14.984;2023-07-31T14:32:23;33.70;1.00
29093;DHT22;16167;48.768;14.984;2023-07-31T14:34:52;33.50;1.00
29093;DHT22;16167;48.768;14.984;2023-07-31T14:37:21;33.20;1.00
29093;DHT22;16167;48.768;14.984;2023-07-31T14:39:49;33.00;1.00
29093;DHT22;16167;48.768;14.984;2023-07-31T14:42:17;32.60;1.00
29093;DHT22;16167;48.768;14.984;2023-07-31T14:44:47;32.40;1.00
29093;DHT22;16167;48.768;14.984;2023-07-31T14:47:15;31.90;1.00
29093;DHT22;16167;48.768;14.984;2023-07-31T14:49:43;31.80;1.00
29093;DHT22;16167;48.768;14.984;2023-07-31T14:52:11;31.70;1.00
29093;DHT22;16167;48.768;14.984;2023-07-31T14:54:39;31.80;1.00
29093;DHT22;16167;48.768;14.984;2023-07-31T14:57:07;31.90;1.00
29093;DHT22;16167;48.768;14.984;2023-07-31T14:59:35;31.80;1.00
29093;DHT22;16167;48.768;14.984;2023-07-31T15:02:05;31.80;1.00
29093;DHT22;16167;48.768;14.984;2023-07-31T15:04:34;31.70;1.00
29093;DHT22;16167;48.768;14.984;2023-07-31T15:07:02;31.40;1.00
29093;DHT22;16167;48.768;14.984;2023-07-31T15:09:30;31.50;1.00
29093;DHT22;16167;48.768;14.984;2023-07-31T15:11:58;31.00;1.00
29093;DHT22;16167;48.768;14.984;2023-07-31T15:14:25;30.60;1.00
29093;DHT22;16167;48.768;14.984;2023-07-31T15:16:55;30.30;1.00
29093;DHT22;16167;48.768;14.984;2023-07-31T15:19:24;30.00;1.00
29093;DHT22;16167;48.768;14.984;2023-07-31T15:21:52;29.60;1.00
29093;DHT22;16167;48.768;14.984;2023-07-31T15:24:20;29.10;1.00
29093;DHT22;16167;48.768;14.984;2023-07-31T15:26:48;29.00;1.00
29093;DHT22;16167;48.768;14.984;2023-07-31T15:29:16;28.90;1.00
29093;DHT22;16167;48.768;14.984;2023-07-31T15:31:46;28.70;1.00
29093;DHT22;16167;48.768;14.984;2023-07-31T15:34:15;28.40;1.00
29093;DHT22;16167;48.768;14.984;2023-07-31T15:36:44;28.40;1.00